Time;durP1;ratioP1;P1;durP2;ratioP2;P2;SDS_P1;SDS_P2;PMS_P1;PMS_P2;Temp;Humidity;BMP_temperature;BMP_pressure;BME280_temperature;BME280_humidity;BME280_pressure;Samples;Min_cycle;Max_cycle;Signal;HPM_P1;HPM_P2
2023/05/31 00:00:07;;;;;;;8.00;5.78;;;;;;;24.74;50.86;101312.50;143722;621;46008;-76
2023/05/31 00:02:33;;;;;;;7.95;5.47;;;;;;;24.72;51.19;101318.28;143725;588;46012;-75
2023/05/31 00:05:00;;;;;;;5.85;5.12;;;;;;;24.73;51.40;101313.59;143722;585;47005;-76
2023/05/31 00:07:26;;;;;;;10.20;4.78;;;;;;;24.72;51.48;101312.78;143728;628;46024;-76
2023/05/31 00:09:52;;;;;;;5.00;4.50;;;;;;;24.73;51.17;101319.94;143727;625;47006;-75
2023/05/31 00:12:18;;;;;;;7.43;4.97;;;;;;;24.74;51.20;101318.00;143723;573;47010;-75
2023/05/31 00:14:45;;;;;;;7.53;4.57;;;;;;;24.73;50.92;101319.94;143723;591;47006;-75
2023/05/31 00:17:12;;;;;;;7.87;5.05;;;;;;;24.73;51.15;101325.44;143724;572;46928;-75
2023/05/31 00:19:39;;;;;;;5.20;4.53;;;;;;;24.72;50.56;101318.28;143724;573;47006;-75
2023/05/31 00:22:05;;;;;;;7.40;4.68;;;;;;;24.69;50.61;101321.56;143726;577;47006;-74
2023/05/31 00:24:32;;;;;;;9.07;4.75;;;;;;;24.68;51.38;101319.91;143717;620;47006;-75
2023/05/31 00:26:58;;;;;;;6.50;4.87;;;;;;;24.68;51.39;101314.41;143725;582;46012;-76
2023/05/31 00:29:25;;;;;;;7.43;5.07;;;;;;;24.66;51.24;101319.38;143726;586;47004;-77
2023/05/31 00:31:52;;;;;;;6.05;4.68;;;;;;;24.66;51.16;101316.62;143725;599;46010;-77
2023/05/31 00:34:18;;;;;;;5.45;4.55;;;;;;;24.65;50.46;101325.97;143726;579;47009;-77
2023/05/31 00:36:44;;;;;;;4.78;3.65;;;;;;;24.63;50.03;101320.75;143723;585;46006;-76
2023/05/31 00:39:11;;;;;;;5.18;4.57;;;;;;;24.60;50.13;101317.75;143725;598;47004;-77
2023/05/31 00:41:37;;;;;;;6.78;4.00;;;;;;;24.60;48.91;101320.50;143728;616;46008;-77
2023/05/31 00:44:03;;;;;;;6.03;4.20;;;;;;;24.59;48.64;101324.34;143723;593;47004;-77
2023/05/31 00:46:36;;;;;;;4.47;4.07;;;;;;;24.56;48.67;101316.66;143724;576;47006;-77
2023/05/31 00:49:02;;;;;;;7.80;5.22;;;;;;;24.56;48.57;101322.97;143719;610;47000;-78
2023/05/31 00:51:31;;;;;;;6.87;4.40;;;;;;;24.54;48.88;101316.91;143725;567;46011;-76
2023/05/31 00:53:58;;;;;;;5.22;4.20;;;;;;;24.53;48.99;101321.59;143724;578;47004;-76
2023/05/31 00:56:25;;;;;;;4.93;4.28;;;;;;;24.51;49.15;101320.25;143723;582;47007;-77
2023/05/31 00:58:53;;;;;;;5.35;4.40;;;;;;;24.47;49.82;101317.22;143726;572;47004;-76
2023/05/31 01:01:25;;;;;;;6.50;4.75;;;;;;;24.46;50.11;101321.06;143722;610;46025;-77
2023/05/31 01:03:56;;;;;;;5.18;4.57;;;;;;;24.44;50.34;101316.97;143722;631;47004;-76
2023/05/31 01:06:31;;;;;;;7.18;4.65;;;;;;;24.41;50.56;101318.34;143723;605;46006;-77
2023/05/31 01:09:07;;;;;;;8.13;5.37;;;;;;;24.38;50.46;101314.22;143727;604;47000;-76
2023/05/31 01:11:59;;;;;;;6.18;4.65;;;;;;;24.35;51.25;101309.31;143722;671;47010;-77
2023/05/31 01:15:13;;;;;;;6.43;5.22;;;;;;;24.33;51.28;101313.41;143717;573;46004;-76
2023/05/31 01:18:09;;;;;;;6.00;5.30;;;;;;;24.33;51.43;101305.16;143722;603;47004;-77
2023/05/31 01:20:38;;;;;;;5.97;5.05;;;;;;;24.31;51.06;101302.72;143723;567;47005;-76
2023/05/31 01:23:37;;;;;;;7.37;5.07;;;;;;;24.30;51.14;101305.72;143722;605;47008;-76
2023/05/31 01:26:44;;;;;;;6.80;4.60;;;;;;;24.28;50.73;101305.16;143724;671;46004;-76
2023/05/31 01:29:17;;;;;;;4.97;4.47;;;;;;;24.27;50.76;101303.56;143722;583;47006;-76
2023/05/31 01:31:45;;;;;;;12.65;5.00;;;;;;;24.26;50.95;101304.66;143726;601;47000;-75
2023/05/31 01:34:13;;;;;;;5.82;4.55;;;;;;;24.25;50.99;101303.00;143723;612;46010;-77
2023/05/31 01:36:40;;;;;;;8.93;5.28;;;;;;;24.24;51.17;101304.09;143726;627;46004;-77
2023/05/31 01:39:08;;;;;;;6.20;4.97;;;;;;;24.21;51.24;101303.56;143723;676;46006;-76
2023/05/31 01:41:41;;;;;;;7.15;4.32;;;;;;;24.19;51.50;101296.69;143718;579;47004;-75
2023/05/31 01:44:10;;;;;;;6.37;4.50;;;;;;;24.18;51.19;101297.81;143726;575;46010;-76
2023/05/31 01:46:38;;;;;;;6.53;4.40;;;;;;;24.16;51.66;101294.50;143724;626;46008;-76
2023/05/31 01:49:06;;;;;;;6.80;4.70;;;;;;;24.16;51.60;101300.00;143722;591;46007;-77
2023/05/31 01:51:40;;;;;;;5.62;4.45;;;;;;;24.14;51.21;101293.97;143725;635;47006;-73
2023/05/31 01:54:08;;;;;;;8.57;5.20;;;;;;;24.15;51.78;101299.16;143722;602;47008;-76
2023/05/31 01:56:40;;;;;;;8.57;4.80;;;;;;;24.16;51.72;101300.00;143727;581;46004;-75
2023/05/31 01:59:07;;;;;;;7.35;4.57;;;;;;;24.16;51.63;101295.31;143727;614;46006;-75
2023/05/31 02:01:36;;;;;;;5.85;4.82;;;;;;;24.17;51.24;101301.66;143725;586;47002;-75
2023/05/31 02:04:02;;;;;;;8.18;5.70;;;;;;;24.17;49.79;101296.16;143726;591;46009;-75
2023/05/31 02:06:28;;;;;;;6.85;5.93;;;;;;;24.16;50.08;101292.56;143714;618;47004;-74
2023/05/31 02:08:54;;;;;;;8.57;6.45;;;;;;;24.15;50.43;101293.66;143724;604;47000;-75
2023/05/31 02:11:21;;;;;;;6.18;4.80;;;;;;;24.14;50.77;101294.75;143725;582;46008;-74
2023/05/31 02:13:48;;;;;;;6.70;6.05;;;;;;;24.12;50.63;101293.41;143722;586;47011;-75
2023/05/31 02:16:14;;;;;;;6.87;6.20;;;;;;;24.12;50.38;101294.22;143722;592;47004;-76
2023/05/31 02:18:40;;;;;;;6.30;5.43;;;;;;;24.11;50.63;101291.75;143724;654;46007;-76
2023/05/31 02:21:07;;;;;;;7.25;4.72;;;;;;;24.10;51.19;101295.59;143723;615;47000;-77
2023/05/31 02:23:33;;;;;;;7.95;5.28;;;;;;;24.08;51.14;101290.41;143723;631;46027;-77
2023/05/31 02:26:00;;;;;;;6.65;5.20;;;;;;;24.06;51.00;101287.09;143723;594;47002;-76
2023/05/31 02:28:26;;;;;;;6.95;5.32;;;;;;;24.02;51.03;101295.03;143723;594;46006;-77
2023/05/31 02:30:59;;;;;;;7.93;4.53;;;;;;;24.02;51.04;101306.03;143720;614;47000;-75
2023/05/31 02:33:26;;;;;;;7.35;5.30;;;;;;;24.01;50.85;101298.88;143722;610;47008;-75
2023/05/31 02:35:53;;;;;;;7.53;5.18;;;;;;;23.98;51.21;101293.97;143721;694;47004;-75
2023/05/31 02:38:20;;;;;;;7.32;5.07;;;;;;;23.97;51.10;101297.81;143726;648;46006;-75
2023/05/31 02:40:47;;;;;;;7.78;5.05;;;;;;;23.98;51.07;101295.88;143723;597;47004;-75
2023/05/31 02:43:14;;;;;;;6.85;5.15;;;;;;;23.96;51.49;101296.12;143723;579;47010;-76
2023/05/31 02:45:40;;;;;;;7.47;4.53;;;;;;;23.93;51.64;101294.75;143723;584;47004;-76
2023/05/31 02:48:07;;;;;;;6.32;5.20;;;;;;;23.92;51.28;101293.09;143725;600;47000;-77
2023/05/31 02:50:33;;;;;;;6.62;5.12;;;;;;;23.90;51.22;101298.06;143723;652;47002;-77
2023/05/31 02:53:04;;;;;;;7.70;5.57;;;;;;;23.90;51.23;101306.28;143722;632;47008;-77
2023/05/31 02:55:31;;;;;;;5.70;5.05;;;;;;;23.89;51.14;101304.66;143717;597;47002;-77
2023/05/31 02:57:57;;;;;;;7.05;4.70;;;;;;;23.88;51.18;101304.91;143725;595;46006;-76
2023/05/31 03:00:25;;;;;;;8.30;5.03;;;;;;;23.88;51.35;101313.12;143724;616;47004;-77
2023/05/31 03:02:52;;;;;;;6.82;5.28;;;;;;;23.87;50.83;101323.31;143720;615;47006;-77
2023/05/31 03:05:18;;;;;;;7.05;5.30;;;;;;;23.86;51.20;101321.66;143723;586;47004;-76
2023/05/31 03:07:44;;;;;;;6.20;4.62;;;;;;;23.85;50.81;101319.16;143721;592;47922;-77
2023/05/31 03:12:56;;;;;;;7.05;5.05;;;;;;;23.81;51.18;101329.88;143724;622;46025;-77
2023/05/31 03:15:23;;;;;;;5.53;4.93;;;;;;;23.80;51.28;101320.00;143719;640;47004;-76
2023/05/31 03:17:50;;;;;;;8.65;5.30;;;;;;;23.79;50.89;101331.25;143726;676;46007;-76
2023/05/31 03:20:16;;;;;;;7.28;5.35;;;;;;;23.76;51.03;101330.69;143718;595;47000;-77
2023/05/31 03:22:42;;;;;;;6.62;5.03;;;;;;;23.77;51.29;101329.59;143725;572;46022;-77
2023/05/31 03:25:08;;;;;;;6.65;4.60;;;;;;;23.76;51.29;101330.69;143721;600;47008;-76
2023/05/31 03:27:35;;;;;;;7.47;4.75;;;;;;;23.75;51.35;101325.47;143721;581;46923;-75
2023/05/31 03:30:01;;;;;;;7.32;5.22;;;;;;;23.76;50.97;101329.84;143726;640;46006;-75
2023/05/31 03:32:28;;;;;;;6.80;5.22;;;;;;;23.75;51.04;101329.03;143722;583;47010;-75
2023/05/31 03:34:54;;;;;;;7.93;4.82;;;;;;;23.75;51.26;101336.44;143722;584;47004;-75
2023/05/31 03:37:20;;;;;;;5.68;4.55;;;;;;;23.76;50.73;101332.59;143722;574;46006;-74
2023/05/31 03:39:47;;;;;;;5.28;4.50;;;;;;;23.76;50.91;101335.34;143725;573;47002;-75
2023/05/31 03:42:13;;;;;;;14.18;4.95;;;;;;;23.76;51.29;101332.59;143725;572;47004;-77
2023/05/31 03:44:40;;;;;;;7.07;5.07;;;;;;;23.75;51.16;101341.91;143717;718;47002;-76
2023/05/31 03:47:07;;;;;;;6.70;5.43;;;;;;;23.75;50.90;101337.28;143722;582;46006;-76
2023/05/31 03:49:33;;;;;;;7.15;4.62;;;;;;;23.76;51.35;101340.81;143724;610;47004;-77
2023/05/31 03:52:00;;;;;;;7.93;4.75;;;;;;;23.76;51.45;101344.41;143722;591;47010;-77
2023/05/31 03:54:26;;;;;;;6.90;5.03;;;;;;;23.76;51.10;101343.56;143723;574;47004;-77
2023/05/31 03:56:52;;;;;;;10.45;5.18;;;;;;;23.76;50.95;101352.63;143722;602;47000;-77
2023/05/31 03:59:18;;;;;;;8.88;4.90;;;;;;;23.77;51.17;101347.97;143724;648;46016;-76
2023/05/31 04:01:44;;;;;;;6.78;5.10;;;;;;;23.77;51.19;101353.44;143722;577;46010;-77
2023/05/31 04:04:11;;;;;;;7.72;5.05;;;;;;;23.77;51.34;101354.28;143726;579;46008;-77
2023/05/31 04:06:38;;;;;;;9.27;5.70;;;;;;;23.77;51.53;101359.78;143723;638;46006;-77
2023/05/31 04:09:04;;;;;;;8.32;5.28;;;;;;;23.78;51.22;101363.31;143718;589;47000;-77
2023/05/31 04:11:30;;;;;;;9.48;5.00;;;;;;;23.79;51.04;101362.22;143723;583;46009;-76
2023/05/31 04:13:58;;;;;;;8.63;5.37;;;;;;;23.81;51.32;101357.31;143723;627;46010;-75
2023/05/31 04:16:24;;;;;;;7.70;5.20;;;;;;;23.82;51.08;101356.22;143724;594;46006;-75
2023/05/31 04:18:51;;;;;;;9.48;5.47;;;;;;;23.84;51.46;101359.50;143723;592;47002;-77
2023/05/31 04:21:17;;;;;;;9.70;5.68;;;;;;;23.87;51.63;101361.72;143723;578;47008;-77
2023/05/31 04:23:43;;;;;;;10.18;5.00;;;;;;;23.89;51.36;101364.16;143724;604;46008;-77
2023/05/31 04:26:16;;;;;;;7.20;5.25;;;;;;;23.90;51.43;101358.41;143723;631;47006;-77
2023/05/31 04:28:44;;;;;;;10.23;5.93;;;;;;;23.93;51.03;101362.53;143724;567;47004;-78
2023/05/31 04:31:12;;;;;;;9.15;5.20;;;;;;;23.97;51.24;101360.09;143720;604;47010;-77
2023/05/31 04:33:38;;;;;;;8.98;4.90;;;;;;;23.99;51.01;101361.47;143716;627;47002;-77
2023/05/31 04:36:04;;;;;;;6.32;5.40;;;;;;;24.03;51.22;101373.53;143722;578;47004;-77
2023/05/31 04:38:32;;;;;;;6.53;5.10;;;;;;;24.05;51.32;101371.34;143725;581;47000;-77
2023/05/31 04:40:59;;;;;;;9.00;5.20;;;;;;;24.07;51.53;101360.09;143722;597;46493;-76
2023/05/31 04:43:26;;;;;;;6.47;4.93;;;;;;;24.11;50.71;101363.13;143721;579;47928;-75
2023/05/31 04:45:53;;;;;;;7.55;5.55;;;;;;;24.12;50.76;101367.50;143721;590;46015;-76
2023/05/31 04:48:20;;;;;;;9.18;5.18;;;;;;;24.14;50.55;101368.87;143727;632;47000;-75
2023/05/31 04:50:48;;;;;;;8.27;5.28;;;;;;;24.17;51.14;101373.81;143723;581;46010;-76
2023/05/31 04:53:14;;;;;;;7.40;5.37;;;;;;;24.20;50.92;101376.00;143725;564;47002;-75
2023/05/31 04:58:27;;;;;;;10.40;5.20;;;;;;;24.26;50.64;101376.03;143716;635;47002;-75
2023/05/31 05:00:54;;;;;;;6.75;5.18;;;;;;;24.30;50.70;101375.19;143721;575;47010;-76
2023/05/31 05:03:20;;;;;;;12.27;5.72;;;;;;;24.33;50.91;101373.81;143723;606;47004;-76
2023/05/31 05:05:47;;;;;;;8.30;5.50;;;;;;;24.35;50.68;101379.84;143722;649;46006;-76
2023/05/31 05:08:14;;;;;;;8.85;5.28;;;;;;;24.38;50.63;101384.78;143724;578;47002;-76
2023/05/31 05:10:40;;;;;;;8.88;6.03;;;;;;;24.41;50.79;101378.75;143718;585;48015;-75
2023/05/31 05:13:06;;;;;;;11.15;5.72;;;;;;;24.44;51.10;101391.09;143725;636;46004;-76
2023/05/31 05:15:33;;;;;;;9.90;5.45;;;;;;;24.47;50.71;101388.59;143724;609;46006;-76
2023/05/31 05:17:59;;;;;;;9.45;5.47;;;;;;;24.50;50.83;101384.50;143725;642;47002;-76
2023/05/31 05:20:25;;;;;;;9.13;5.07;;;;;;;24.53;50.42;101393.00;143721;577;47008;-76
2023/05/31 05:22:52;;;;;;;10.63;4.72;;;;;;;24.57;49.88;101395.19;143716;601;47004;-75
2023/05/31 05:25:20;;;;;;;13.13;5.55;;;;;;;24.60;49.72;101397.41;143721;577;46006;-76
2023/05/31 05:27:47;;;;;;;7.32;4.28;;;;;;;24.62;48.97;101400.69;143722;617;47002;-75
2023/05/31 05:30:14;;;;;;;7.32;5.10;;;;;;;24.65;49.56;101400.13;143721;588;47010;-76
2023/05/31 05:32:40;;;;;;;5.28;4.57;;;;;;;24.67;48.61;101390.53;143723;573;46011;-76
2023/05/31 05:35:07;;;;;;;6.55;4.45;;;;;;;24.72;48.88;101395.19;143723;589;46006;-76
2023/05/31 05:37:33;;;;;;;4.82;4.32;;;;;;;24.74;47.99;101397.66;143724;598;47004;-74
2023/05/31 05:39:59;;;;;;;8.63;4.22;;;;;;;24.77;48.14;101405.34;143721;599;47012;-75
2023/05/31 05:42:27;;;;;;;8.90;5.28;;;;;;;24.80;48.89;101402.84;143722;574;47006;-74
2023/05/31 05:44:53;;;;;;;6.87;4.72;;;;;;;24.84;48.57;101400.41;143723;586;46929;-74
2023/05/31 05:47:19;;;;;;;6.47;4.40;;;;;;;24.88;47.65;101403.41;143721;618;46013;-74
2023/05/31 05:49:48;;;;;;;7.50;4.43;;;;;;;24.91;47.97;101403.66;143723;596;46024;-74
2023/05/31 05:52:15;;;;;;;7.30;4.85;;;;;;;24.94;48.20;101399.56;143722;587;47006;-75
2023/05/31 05:54:41;;;;;;;9.10;5.07;;;;;;;25.00;48.14;101403.09;143724;591;46009;-74
2023/05/31 05:57:07;;;;;;;6.87;4.62;;;;;;;25.03;48.20;101406.09;143722;588;46012;-74
2023/05/31 05:59:34;;;;;;;5.55;4.78;;;;;;;25.07;48.59;101400.84;143722;569;47012;-76
2023/05/31 06:02:00;;;;;;;7.43;5.15;;;;;;;25.11;48.06;101397.28;143723;574;47007;-76
2023/05/31 06:04:26;;;;;;;6.07;4.80;;;;;;;25.15;47.91;101407.72;143725;615;46008;-77
2023/05/31 06:06:52;;;;;;;6.65;5.47;;;;;;;25.17;47.68;101405.50;143723;593;47008;-77
2023/05/31 06:09:19;;;;;;;7.57;5.50;;;;;;;25.21;47.59;101406.59;143725;600;46005;-76
2023/05/31 06:11:45;;;;;;;7.00;5.53;;;;;;;25.22;47.63;101402.75;143716;601;47004;-75
2023/05/31 06:14:11;;;;;;;6.82;5.90;;;;;;;25.26;47.56;101410.13;143719;575;47002;-75
2023/05/31 06:16:37;;;;;;;6.18;5.57;;;;;;;25.30;47.83;101404.06;143725;629;47004;-75
2023/05/31 06:19:03;;;;;;;9.07;6.50;;;;;;;25.34;47.52;101402.41;143722;594;47008;-75
2023/05/31 06:21:30;;;;;;;10.43;5.68;;;;;;;25.37;47.47;101402.66;143724;592;46008;-76
2023/05/31 06:23:56;;;;;;;11.80;6.93;;;;;;;25.38;47.50;101412.56;143722;601;47925;-76
2023/05/31 06:26:22;;;;;;;10.43;6.18;;;;;;;25.38;47.92;101420.00;143723;573;47000;-76
2023/05/31 06:28:50;;;;;;;11.57;5.80;;;;;;;25.25;47.82;101421.44;143723;588;47004;-76
2023/05/31 06:31:17;;;;;;;10.10;6.07;;;;;;;25.12;48.53;101420.09;143722;615;47004;-80
2023/05/31 06:33:43;;;;;;;12.85;7.10;;;;;;;25.08;49.48;101419.84;143721;579;46006;-75
2023/05/31 06:36:10;;;;;;;9.05;6.43;;;;;;;25.12;49.42;101418.19;143719;585;46006;-78
2023/05/31 06:38:36;;;;;;;9.75;6.45;;;;;;;25.10;50.24;101433.28;143721;594;47010;-78
2023/05/31 06:41:02;;;;;;;9.02;6.32;;;;;;;24.98;50.36;101425.34;143724;597;46009;-78
2023/05/31 06:43:29;;;;;;;8.77;5.82;;;;;;;24.99;50.60;101432.50;143723;581;46006;-77
2023/05/31 06:45:55;;;;;;;11.15;6.10;;;;;;;25.01;50.80;101430.28;143725;639;47004;-80
2023/05/31 06:48:21;;;;;;;13.45;6.65;;;;;;;24.94;50.58;101429.78;143722;572;47008;-79
2023/05/31 06:50:47;;;;;;;9.35;6.75;;;;;;;24.86;50.81;101430.31;143723;592;47002;-78
2023/05/31 06:53:14;;;;;;;12.02;6.68;;;;;;;24.79;51.25;101431.47;143722;580;47004;-77
2023/05/31 06:55:40;;;;;;;7.68;5.90;;;;;;;24.80;51.25;101429.53;143722;572;47002;-78
2023/05/31 06:58:07;;;;;;;7.10;6.10;;;;;;;24.91;50.48;101427.59;143721;575;47010;-77
2023/05/31 07:00:33;;;;;;;10.45;5.95;;;;;;;24.97;50.07;101434.72;143716;593;47004;-77
2023/05/31 07:03:00;;;;;;;8.40;5.53;;;;;;;24.93;50.20;101425.38;143723;578;47925;-75
2023/05/31 07:05:26;;;;;;;7.55;5.75;;;;;;;24.93;50.16;101436.38;143727;569;46008;-78
2023/05/31 07:07:52;;;;;;;9.13;5.55;;;;;;;24.92;50.53;101431.97;143720;587;47010;-78
2023/05/31 07:10:19;;;;;;;6.10;5.47;;;;;;;24.96;50.28;101438.56;143723;569;46010;-78
2023/05/31 07:12:46;;;;;;;9.75;5.00;;;;;;;25.04;49.48;101428.94;143724;599;46020;-77
2023/05/31 07:15:12;;;;;;;7.07;4.70;;;;;;;25.03;49.56;101435.53;143724;584;47002;-79
2023/05/31 07:17:39;;;;;;;7.07;4.90;;;;;;;24.95;50.09;101434.97;143727;567;46004;-75
2023/05/31 07:20:08;;;;;;;6.12;5.10;;;;;;;24.88;50.56;101439.97;143727;624;46004;-72
2023/05/31 07:22:36;;;;;;;5.03;4.50;;;;;;;25.02;51.68;101440.19;143726;576;46015;-74
2023/05/31 07:25:03;;;;;;;7.62;4.82;;;;;;;25.08;52.26;101444.56;143718;577;47002;-77
2023/05/31 07:27:30;;;;;;;5.82;4.97;;;;;;;25.17;51.68;101435.72;143723;624;47010;-75
2023/05/31 07:29:57;;;;;;;6.00;5.32;;;;;;;25.10;52.11;101433.28;143723;579;47004;-77
2023/05/31 07:32:23;;;;;;;7.95;4.78;;;;;;;25.20;51.88;101436.03;143722;588;46925;-77
2023/05/31 07:34:49;;;;;;;5.80;4.72;;;;;;;25.27;51.74;101431.03;143725;598;46008;-75
2023/05/31 07:37:16;;;;;;;7.30;5.05;;;;;;;25.28;51.61;101442.88;143725;595;46004;-76
2023/05/31 07:39:44;;;;;;;6.18;5.00;;;;;;;25.27;51.04;101432.97;143721;590;47009;-78
2023/05/31 07:42:12;;;;;;;5.53;4.28;;;;;;;25.35;50.36;101437.06;143723;593;46013;-79
2023/05/31 07:44:39;;;;;;;7.00;4.78;;;;;;;25.42;50.74;101434.84;143723;609;47004;-76
2023/05/31 07:47:06;;;;;;;5.53;4.53;;;;;;;25.46;50.99;101435.12;143723;604;47011;-76
2023/05/31 07:49:32;;;;;;;7.05;5.37;;;;;;;25.55;50.83;101434.25;143717;569;46010;-77
2023/05/31 07:51:59;;;;;;;6.28;4.78;;;;;;;25.65;50.60;101427.03;143722;569;46006;-77
2023/05/31 07:54:25;;;;;;;11.85;5.25;;;;;;;25.64;50.44;101430.88;143726;579;46002;-77
2023/05/31 07:56:52;;;;;;;6.18;4.90;;;;;;;25.63;50.62;101426.50;143725;603;47004;-75
2023/05/31 07:59:19;;;;;;;6.47;5.37;;;;;;;25.68;50.90;101427.28;143722;592;47004;-77
2023/05/31 08:01:46;;;;;;;8.10;4.97;;;;;;;25.77;50.81;101424.75;143722;594;47007;-75
2023/05/31 08:04:12;;;;;;;6.53;5.12;;;;;;;25.82;50.96;101423.94;143726;641;47004;-76
2023/05/31 08:06:39;;;;;;;6.45;4.87;;;;;;;25.80;51.04;101421.44;143725;617;47004;-78
2023/05/31 08:09:06;;;;;;;6.95;5.18;;;;;;;25.85;51.32;101418.66;143725;662;46004;-76
2023/05/31 08:11:35;;;;;;;7.30;5.20;;;;;;;25.93;50.85;101413.66;143724;588;46006;-76
2023/05/31 08:14:01;;;;;;;6.20;4.97;;;;;;;25.99;50.25;101418.00;143720;593;46004;-75
2023/05/31 08:16:28;;;;;;;5.78;4.80;;;;;;;26.08;50.71;101416.31;143722;597;47010;-76
2023/05/31 08:18:54;;;;;;;5.75;5.07;;;;;;;26.09;50.06;101415.19;143724;631;47004;-76
2023/05/31 08:21:21;;;;;;;7.18;5.05;;;;;;;26.04;50.46;101416.03;143720;592;47006;-76
2023/05/31 08:23:47;;;;;;;6.12;4.82;;;;;;;26.10;50.58;101416.84;143726;589;46002;-76
2023/05/31 08:26:13;;;;;;;8.65;4.80;;;;;;;26.08;50.44;101413.56;143724;581;46008;-74
2023/05/31 08:28:40;;;;;;;5.78;4.65;;;;;;;26.12;50.68;101411.88;143727;617;46008;-78
2023/05/31 08:31:07;;;;;;;5.78;4.68;;;;;;;26.19;50.22;101406.06;143723;598;46006;-79
2023/05/31 08:33:33;;;;;;;8.13;4.57;;;;;;;26.22;49.89;101422.00;143725;620;47004;-80
2023/05/31 08:36:00;;;;;;;5.37;4.78;;;;;;;26.14;49.22;101417.94;143722;578;47006;-78
2023/05/31 08:38:27;;;;;;;5.75;4.75;;;;;;;26.03;47.16;101419.91;143720;593;47004;-78
2023/05/31 08:40:57;;;;;;;13.77;4.43;;;;;;;25.82;47.55;101426.69;143722;567;47006;-77
2023/05/31 08:43:26;;;;;;;6.85;4.03;;;;;;;25.86;48.74;101416.72;143727;590;47004;-77
2023/05/31 08:45:52;;;;;;;5.70;4.55;;;;;;;25.99;48.39;101421.59;143724;573;47010;-76
2023/05/31 08:48:49;;;;;;;4.57;4.00;;;;;;;26.06;48.29;101413.03;143726;672;46004;-77
2023/05/31 08:51:16;;;;;;;5.03;4.20;;;;;;;26.21;48.26;101414.84;143726;591;46006;-78
2023/05/31 08:53:45;;;;;;;5.37;4.22;;;;;;;26.17;48.11;101417.34;143727;580;47002;-78
2023/05/31 08:56:13;;;;;;;7.18;4.22;;;;;;;26.13;47.81;101421.78;143723;640;47010;-78
2023/05/31 08:58:42;;;;;;;6.28;4.10;;;;;;;26.08;47.60;101413.56;143726;603;47004;-77
2023/05/31 09:01:09;;;;;;;7.78;4.30;;;;;;;26.17;46.80;101413.78;143723;582;47925;-78
2023/05/31 09:03:38;;;;;;;6.05;4.40;;;;;;;26.17;47.51;101413.78;143720;584;47004;-78
2023/05/31 09:06:04;;;;;;;5.30;4.00;;;;;;;26.32;46.97;101401.81;143723;629;47010;-76
2023/05/31 09:08:33;;;;;;;8.65;3.95;;;;;;;26.29;45.94;101411.47;143726;644;47002;-80
2023/05/31 09:11:05;;;;;;;6.70;4.25;;;;;;;26.23;45.17;101406.31;143722;569;46924;-79
2023/05/31 09:13:32;;;;;;;9.65;4.47;;;;;;;26.21;45.49;101401.06;143725;641;47004;-79
2023/05/31 09:15:59;;;;;;;3.95;3.50;;;;;;;26.37;45.79;101396.28;143725;663;47002;-80
2023/05/31 09:18:29;;;;;;;4.87;3.87;;;;;;;26.31;44.34;101398.25;143725;587;46004;-78
2023/05/31 09:20:56;;;;;;;5.12;3.85;;;;;;;26.34;44.89;101391.34;143725;656;46006;-78
2023/05/31 09:23:23;;;;;;;4.10;3.55;;;;;;;26.53;47.24;101390.59;143726;573;47004;-78
2023/05/31 09:25:51;;;;;;;5.62;4.30;;;;;;;26.60;45.92;101385.59;143724;644;47010;-79
2023/05/31 09:28:19;;;;;;;7.35;4.57;;;;;;;26.62;46.93;101381.41;143719;622;47004;-79
2023/05/31 09:30:46;;;;;;;6.15;4.37;;;;;;;26.48;45.89;101378.53;143724;672;46007;-79
2023/05/31 09:33:13;;;;;;;4.97;4.12;;;;;;;26.58;45.59;101374.03;143725;627;47004;-78
2023/05/31 09:35:56;;;;;;;5.15;4.18;;;;;;;26.68;45.83;101370.34;143725;576;46010;-79
2023/05/31 09:38:35;;;;;;;5.80;4.20;;;;;;;26.75;47.07;101368.87;143724;703;47009;-79
2023/05/31 09:41:19;;;;;;;8.20;3.90;;;;;;;26.84;45.07;101373.78;143726;735;46020;-77
2023/05/31 09:43:48;;;;;;;4.07;3.65;;;;;;;26.82;44.94;101371.31;143726;578;47002;-78
2023/05/31 09:46:18;;;;;;;5.78;4.45;;;;;;;26.90;46.16;101375.38;143722;610;47009;-77
2023/05/31 09:48:56;;;;;;;5.95;4.30;;;;;;;26.97;45.38;101377.75;143726;600;46013;-77
2023/05/31 09:51:22;;;;;;;5.12;3.83;;;;;;;26.97;46.05;101367.56;143725;637;46006;-79
2023/05/31 09:53:51;;;;;;;6.05;4.03;;;;;;;26.99;46.31;101365.34;143721;694;46016;-77
2023/05/31 09:56:21;;;;;;;9.25;4.03;;;;;;;27.09;45.17;101373.47;143723;694;47010;-77
2023/05/31 09:58:48;;;;;;;5.05;3.92;;;;;;;27.11;44.25;101372.37;143724;572;47004;-76
2023/05/31 10:01:16;;;;;;;5.43;4.30;;;;;;;27.18;45.20;101368.13;143723;593;48925;-78
2023/05/31 10:03:43;;;;;;;5.68;4.37;;;;;;;27.08;45.66;101371.84;143726;578;47004;-78
2023/05/31 10:06:13;;;;;;;6.95;4.35;;;;;;;26.92;47.01;101381.41;143724;634;46028;-72
2023/05/31 10:08:40;;;;;;;5.85;4.22;;;;;;;26.92;47.08;101371.19;143724;602;47004;-77
2023/05/31 10:11:08;;;;;;;5.68;4.75;;;;;;;26.96;47.26;101359.59;143717;596;48006;-73
2023/05/31 10:13:36;;;;;;;6.03;3.97;;;;;;;27.09;47.64;101365.22;143722;654;47002;-74
2023/05/31 10:16:08;;;;;;;4.25;3.65;;;;;;;26.95;47.04;101361.53;143724;649;46923;-74
2023/05/31 10:18:44;;;;;;;4.93;4.07;;;;;;;26.98;47.05;101346.31;143718;685;46008;-72
2023/05/31 10:21:22;;;;;;;4.97;4.15;;;;;;;26.99;46.34;101356.25;143725;572;46006;-74
2023/05/31 10:23:57;;;;;;;5.45;4.18;;;;;;;26.86;47.54;101342.06;143725;578;47004;-72
2023/05/31 10:26:35;;;;;;;5.68;4.10;;;;;;;26.73;46.38;101343.56;143724;735;47010;-74
2023/05/31 10:29:23;;;;;;;4.55;4.12;;;;;;;26.90;47.94;101345.03;143723;678;47002;-72
2023/05/31 10:31:51;;;;;;;6.00;4.28;;;;;;;27.00;47.18;101338.59;143727;602;46006;-71
2023/05/31 10:34:26;;;;;;;7.78;4.90;;;;;;;27.14;47.32;101342.25;143727;653;47000;-73
2023/05/31 10:36:54;;;;;;;5.82;4.18;;;;;;;27.15;47.11;101337.56;143724;655;47008;-74
2023/05/31 10:39:56;;;;;;;4.68;4.07;;;;;;;27.22;47.58;101326.97;143724;609;47004;-75
2023/05/31 10:43:07;;;;;;;8.77;4.90;;;;;;;27.23;47.98;101323.09;143722;654;46006;-76
2023/05/31 10:45:41;;;;;;;6.85;4.75;;;;;;;27.39;47.88;101326.47;143721;698;47000;-73
2023/05/31 10:48:33;;;;;;;7.20;4.85;;;;;;;27.49;48.11;101312.56;143723;610;47010;-74
2023/05/31 10:51:01;;;;;;;5.50;4.43;;;;;;;27.52;47.31;101309.19;143724;712;47002;-75
2023/05/31 10:53:46;;;;;;;12.43;4.55;;;;;;;27.62;47.51;101297.19;143726;733;46006;-74
2023/05/31 10:56:14;;;;;;;8.18;4.70;;;;;;;27.71;47.66;101307.56;143726;634;47002;-75
2023/05/31 10:58:43;;;;;;;5.43;4.00;;;;;;;27.80;47.25;101309.28;143722;593;47009;-76
2023/05/31 11:01:21;;;;;;;7.85;4.50;;;;;;;27.84;46.47;101299.28;143727;629;46009;-75
2023/05/31 11:03:52;;;;;;;7.30;4.60;;;;;;;27.94;46.77;101309.34;143724;680;46006;-75
2023/05/31 11:06:26;;;;;;;6.93;4.40;;;;;;;27.98;46.68;101295.75;143725;656;47004;-75
2023/05/31 11:09:17;;;;;;;5.87;4.55;;;;;;;28.08;46.81;101290.06;143723;601;47011;-74
2023/05/31 11:11:49;;;;;;;6.12;4.70;;;;;;;28.08;45.84;101290.06;143717;569;47004;-75
2023/05/31 11:14:27;;;;;;;5.07;4.53;;;;;;;28.10;45.61;101282.31;143725;596;46007;-76
2023/05/31 11:17:13;;;;;;;6.93;4.40;;;;;;;28.18;46.07;101285.50;143727;586;47004;-74
2023/05/31 11:19:43;;;;;;;4.93;4.43;;;;;;;28.21;45.72;101280.19;143725;562;46010;-72
2023/05/31 11:22:16;;;;;;;5.00;4.55;;;;;;;28.30;45.73;101283.06;143726;649;46009;-72
2023/05/31 11:24:50;;;;;;;6.23;4.33;;;;;;;28.32;45.84;101278.06;143723;709;47924;-72
2023/05/31 11:27:18;;;;;;;6.22;5.32;;;;;;;28.38;45.70;101276.00;143727;602;47004;-72
2023/05/31 11:30:08;;;;;;;7.50;4.87;;;;;;;28.16;45.56;101273.94;143721;642;47006;-72
2023/05/31 11:32:55;;;;;;;9.00;4.97;;;;;;;28.14;46.17;101272.31;143725;575;47002;-72
2023/05/31 11:35:23;;;;;;;6.85;5.82;;;;;;;28.05;46.59;101273.28;143723;597;46926;-72
2023/05/31 11:37:51;;;;;;;7.87;5.57;;;;;;;28.10;46.74;101264.91;143718;605;47006;-71